GLACIER NATIONAL PARK
GARDEN WALL WX STATION
SHOULOW 4/29/2017
CLICK HERE TO VIEW GRAPH!!!
All data is provisional.
Wind sensor is not heated. Riming can occur.
        DATE  TIME Temp F Wind Speed Wind Dir Wind Gust     BATT  % RH Press InHg
                                                                                  
                       AVG        AVG      AVG       MAX      AVG   AVG        AVG

   4/29/2017 18:00      27         13      152        23    14.10    93      30.06
   4/29/2017 17:00      27         14      164        24    13.77    93      30.07
   4/29/2017 16:00      28         14      148        23    14.11    91      30.07
   4/29/2017 15:00      28         11      145        20    14.10    90      30.09
   4/29/2017 14:00      28         10      160        17    14.11    90      30.09
   4/29/2017 13:00      27          9      179        17    14.25    92      30.11
   4/29/2017 12:00      27          8      170        15    14.51    91      30.11
   4/29/2017 11:00      26          6      164        13    14.51    91      30.12
   4/29/2017 10:00      26          3      163         6    13.55    92      30.12
   4/29/2017 09:00      25          4      170         6    12.74    92      30.12
   4/29/2017 08:00      25          3      170         7    12.54    93      30.12
   4/29/2017 07:00      24          3      173         7    12.42    93      30.11
   4/29/2017 06:00      24          2      154         7    12.41    93      30.11
   4/29/2017 05:00      25          3      167         6    12.43    93      30.11
   4/29/2017 04:00      25          4      173         9    12.44    93      30.10
   4/29/2017 03:00      25          6      167        12    12.46    93      30.09
   4/29/2017 02:00      25          5      156        12    12.48    93      30.09
   4/29/2017 01:00      25          4      143        11    12.51    93      30.10
   4/28/2017 24:00      26          3      206         9    12.55    93      30.09
   4/28/2017 23:00      26          3      146         8    12.61    93      30.09
   4/28/2017 22:00      26          4      146         7    12.75    92      30.09
   4/28/2017 21:00      26          3      142         7    13.01    92      30.08
   4/28/2017 20:00      26          6      179        11    13.25    92      30.07
   4/28/2017 19:00      27          9      158        15    13.53    92      30.07
   4/28/2017 18:00      31          6      157        14    14.11    84      30.06
   4/28/2017 17:00      32          3      144        11    14.11    82      30.06
   4/28/2017 16:00      32          4      149         9    14.11    84      30.06
   4/28/2017 15:00      34          2      144         5    14.11    84      30.06
   4/28/2017 14:00      34          1      251         4    14.11    89      30.04
   4/28/2017 13:00      33          1      256         4    14.51    95      30.03
   4/28/2017 12:00      32          0      263         2    14.51    95      30.02
   4/28/2017 11:00      29          1      193         4    14.06    93      30.00
   4/28/2017 10:00      26          0        0         0    12.78    92      29.98
   4/28/2017 09:00      25          0        0         0    12.53    92      29.97
   4/28/2017 08:00      23          0        0         0    12.45    92      29.94
   4/28/2017 07:00      23          1      263         2    12.41    92      29.92
   4/28/2017 06:00      22          1      155         4    12.41    91      29.91
   4/28/2017 05:00      23          2      148         5    12.42    91      29.90
   4/28/2017 04:00      23          2      180         5    12.43    91      29.88
   4/28/2017 03:00      23          2      184         4    12.45    91      29.87
   4/28/2017 02:00      23          4      158        11    12.47    91      29.87
   4/28/2017 01:00      23          6      157        10    12.49    91      29.86
   4/27/2017 24:00      23          7      157        12    12.52    91      29.85
   4/27/2017 23:00      23          7      144        14    12.58    91      29.84
   4/27/2017 22:00      23          6      143        12    12.69    91      29.84
   4/27/2017 21:00      23          7      132        17    12.89    91      29.82
   4/27/2017 20:00      24          5      148        13    13.16    91      29.82
   4/27/2017 19:00      25          5      148        10    13.65    91      29.81


CLICK HERE TO VIEW GRAPH!!!